Main page
METAR-TAF:

METAR-TAF

Airports :

Neuburg Air Base

Neuburg, Germany

latitude: 48-43N, longitude: 011-13E, elevation: 380 m

Current weather observation

The report was made 57 minutes ago, at 12:20 UTC
Wind 9 kt from the West
Temperature 7°C
Humidity 53%
Pressure 1028 hPa
Visibility 10 km or more
Few clouds at a height of 3300 ft
Broken clouds at a height of 5000 ft

METAR: ETSN 261220Z 28009KT 9999 FEW033 BKN050 07/M02 Q1028 BLU BLU

Time: 14:17 (13:17 UTC)

Forecast

The report was made 1 hour and 57 minutes ago, at 11:20 UTC
Forecast valid from 26 at 12 UTC to 26 at 21 UTC
Wind 10 kt from the West
Visibility 10 km or more
Broken clouds at a height of 5000 ft

TAF: ETSN 261120Z 2612/2621 28010KT 9999 NSW BKN050 BY ETGL

Weather observations and forecasts of more than 4000 airports (METAR and TAF reports).

The available stations are represented by yellow and red dots on the map.

Hover mouse over dot to see the name of the station.

Then click to see weather observations and forecasts.

To change the map : click on the green buttons with a black cross to zoom in, on the green button with a dash to zoom out, or on the green arrows for adjacent maps.


METAR-TAF: